Time;durP1;ratioP1;P1;durP2;ratioP2;P2;SDS_P1;SDS_P2;PMS_P1;PMS_P2;Temp;Humidity;BMP_temperature;BMP_pressure;BME280_temperature;BME280_humidity;BME280_pressure;Samples;Min_cycle;Max_cycle;Signal;HPM_P1;HPM_P2
2023/02/03 00:04:20;;;;;;;2.23;1.60;;;8.60;46.10;;;;;;10427714;28;20232;-73
2023/02/03 00:09:25;;;;;;;1.40;1.30;;;8.60;46.10;;;;;;10427907;28;20229;-72
2023/02/03 00:14:28;;;;;;;1.83;1.33;;;8.60;46.10;;;;;;10431877;28;20232;-73
2023/02/03 00:19:31;;;;;;;2.07;1.50;;;8.60;46.00;;;;;;10429944;28;20682;-73
2023/02/03 00:24:36;;;;;;;1.63;1.50;;;8.60;46.00;;;;;;10433923;28;20726;-73
2023/02/03 00:29:39;;;;;;;1.40;1.30;;;8.60;46.20;;;;;;10428230;28;20279;-73
2023/02/03 00:34:42;;;;;;;1.23;1.13;;;8.60;46.00;;;;;;10428630;28;20230;-73
2023/02/03 00:39:47;;;;;;;1.37;1.23;;;8.60;46.00;;;;;;10434182;28;20601;-73
2023/02/03 00:44:50;;;;;;;2.60;1.37;;;8.60;46.00;;;;;;10436099;28;20236;-73
2023/02/03 00:49:53;;;;;;;1.73;1.20;;;8.60;46.00;;;;;;10431298;28;20240;-73
2023/02/03 00:54:58;;;;;;;1.30;1.20;;;8.60;46.00;;;;;;10431021;28;20221;-73
2023/02/03 01:00:01;;;;;;;1.30;1.07;;;8.60;46.20;;;;;;10435025;28;20709;-72
2023/02/03 01:05:05;;;;;;;1.60;1.30;;;8.60;46.00;;;;;;10435006;28;20224;-70
2023/02/03 01:10:10;;;;;;;1.40;1.30;;;8.60;46.00;;;;;;10436925;28;20232;-70
2023/02/03 01:15:13;;;;;;;2.93;1.30;;;8.60;46.40;;;;;;10436098;28;20221;-72
2023/02/03 01:20:17;;;;;;;1.63;1.00;;;8.60;46.20;;;;;;10446417;28;20595;-73
2023/02/03 01:25:21;;;;;;;1.40;1.30;;;8.60;46.20;;;;;;10432192;28;20903;-73
2023/02/03 01:30:25;;;;;;;2.03;1.37;;;8.60;46.30;;;;;;10436008;28;20233;-73
2023/02/03 01:35:28;;;;;;;1.67;1.40;;;8.60;46.20;;;;;;10433433;28;20288;-70
2023/02/03 01:40:33;;;;;;;2.13;1.47;;;8.60;46.20;;;;;;10433642;28;20237;-70
2023/02/03 01:45:36;;;;;;;1.60;1.50;;;8.60;46.40;;;;;;10433613;28;20232;-70
2023/02/03 01:50:40;;;;;;;1.47;1.30;;;8.60;46.30;;;;;;10434770;28;20236;-72
2023/02/03 01:55:48;;;;;;;1.40;1.30;;;8.60;46.10;;;;;;10431327;28;20233;-73
2023/02/03 02:00:54;;;;;;;1.80;1.43;;;8.60;46.60;;;;;;10430314;28;20728;-73
2023/02/03 02:06:02;;;;;;;1.40;1.30;;;8.50;46.20;;;;;;10439236;28;20229;-70
2023/02/03 02:11:08;;;;;;;1.50;1.30;;;8.50;46.40;;;;;;10432896;28;20870;-72
2023/02/03 02:16:16;;;;;;;1.33;1.23;;;8.50;46.50;;;;;;10431733;28;20222;-72
2023/02/03 02:21:45;;;;;;;2.07;1.50;;;8.60;46.50;;;;;;10434768;28;20229;-72
2023/02/03 02:26:59;;;;;;;1.40;1.30;;;8.60;46.70;;;;;;10440008;28;20235;-73
2023/02/03 02:32:15;;;;;;;1.43;1.13;;;8.60;46.60;;;;;;10431807;28;20320;-73
2023/02/03 02:37:24;;;;;;;1.57;1.47;;;8.50;46.60;;;;;;10430747;28;20231;-70
2023/02/03 02:42:35;;;;;;;1.57;1.33;;;8.50;46.50;;;;;;10445223;28;20232;-71
2023/02/03 02:47:40;;;;;;;2.17;1.30;;;8.50;46.60;;;;;;10438388;28;20229;-71
2023/02/03 02:52:45;;;;;;;1.60;1.30;;;8.50;46.30;;;;;;10432094;28;20224;-71
2023/02/03 02:57:50;;;;;;;1.40;1.30;;;8.50;46.30;;;;;;10434431;28;20225;-71
2023/02/03 03:02:56;;;;;;;1.60;1.30;;;8.50;46.30;;;;;;10437499;28;20229;-71
2023/02/03 03:08:02;;;;;;;1.43;1.20;;;8.50;46.30;;;;;;10428980;28;20299;-71
2023/02/03 03:13:11;;;;;;;1.30;1.20;;;8.60;46.40;;;;;;10439451;28;20225;-71
2023/02/03 03:18:20;;;;;;;2.00;1.13;;;8.50;46.20;;;;;;10434615;28;20674;-71
2023/02/03 03:23:27;;;;;;;1.80;1.70;;;8.60;46.20;;;;;;10429378;28;20248;-71
2023/02/03 03:28:37;;;;;;;1.23;1.10;;;8.60;46.10;;;;;;10426586;28;20237;-71
2023/02/03 03:33:42;;;;;;;3.03;1.23;;;8.60;46.20;;;;;;10429482;28;20235;-71
2023/02/03 03:38:54;;;;;;;2.17;1.20;;;8.70;45.80;;;;;;10431293;28;20249;-71
2023/02/03 03:44:02;;;;;;;1.60;1.20;;;8.70;46.10;;;;;;10434167;28;20221;-71
2023/02/03 03:49:10;;;;;;;1.50;1.30;;;8.70;45.80;;;;;;10428914;28;20253;-71
2023/02/03 03:54:18;;;;;;;1.67;1.40;;;8.70;45.80;;;;;;10432795;28;20225;-71
2023/02/03 03:59:24;;;;;;;1.60;1.30;;;8.70;45.80;;;;;;10431234;28;20691;-71
2023/02/03 04:04:29;;;;;;;2.03;1.30;;;8.70;45.80;;;;;;10426460;28;20236;-71
2023/02/03 04:09:35;;;;;;;2.20;1.50;;;8.70;45.80;;;;;;10431094;28;20293;-71
2023/02/03 04:14:38;;;;;;;2.47;1.53;;;8.80;45.80;;;;;;10428198;28;20227;-72
2023/02/03 04:19:43;;;;;;;2.23;1.40;;;8.70;45.80;;;;;;10436055;28;20246;-71
2023/02/03 04:24:46;;;;;;;1.40;1.20;;;8.70;45.80;;;;;;10437528;28;20279;-71
2023/02/03 04:29:49;;;;;;;2.07;1.20;;;8.70;45.80;;;;;;10442410;28;20224;-71
2023/02/03 04:34:54;;;;;;;1.40;1.30;;;8.70;45.80;;;;;;10441586;28;20220;-71
2023/02/03 04:39:57;;;;;;;1.37;1.27;;;8.70;45.80;;;;;;10435619;28;20728;-71
2023/02/03 04:45:00;;;;;;;1.70;1.30;;;8.70;45.80;;;;;;10434317;28;20213;-71
2023/02/03 04:50:05;;;;;;;1.90;1.00;;;8.70;45.80;;;;;;10439689;28;20218;-71
2023/02/03 04:55:09;;;;;;;1.93;1.30;;;8.70;45.80;;;;;;10441879;28;20229;-71
2023/02/03 05:00:13;;;;;;;1.47;1.20;;;8.70;45.80;;;;;;10435451;28;20225;-71
2023/02/03 05:05:18;;;;;;;1.70;1.23;;;8.70;45.60;;;;;;10439212;28;20233;-71
2023/02/03 05:10:21;;;;;;;1.20;1.10;;;8.80;45.50;;;;;;10437474;28;20236;-71
2023/02/03 05:15:24;;;;;;;1.50;1.10;;;8.80;45.50;;;;;;10430676;28;20227;-71
2023/02/03 05:20:29;;;;;;;1.50;1.27;;;8.80;45.30;;;;;;10433650;28;20233;-73
2023/02/03 05:25:32;;;;;;;2.33;1.40;;;8.80;45.30;;;;;;10428158;28;20693;-71
2023/02/03 05:30:35;;;;;;;1.63;1.27;;;8.80;45.30;;;;;;10438499;28;20355;-71
2023/02/03 05:35:40;;;;;;;2.27;1.40;;;8.80;45.40;;;;;;10432598;28;20260;-72
2023/02/03 05:46:06;;;;;;;1.30;1.17;;;8.80;45.50;;;;;;10442563;28;20212;-70
2023/02/03 05:51:10;;;;;;;2.07;1.67;;;8.80;45.40;;;;;;10429927;28;20299;-72
2023/02/03 05:56:13;;;;;;;2.30;1.90;;;8.80;45.30;;;;;;10432979;28;20222;-75
2023/02/03 06:01:18;;;;;;;2.03;1.30;;;8.80;45.20;;;;;;10430790;28;20628;-71
2023/02/03 06:06:22;;;;;;;2.47;1.80;;;8.80;45.10;;;;;;10426915;28;20225;-71
2023/02/03 06:11:25;;;;;;;2.20;1.40;;;8.80;45.30;;;;;;10427350;28;20237;-71
2023/02/03 06:16:29;;;;;;;1.47;1.30;;;8.70;45.30;;;;;;10427070;28;20668;-74
2023/02/03 06:21:34;;;;;;;1.53;1.40;;;8.80;45.30;;;;;;10429408;28;20282;-71
2023/02/03 06:26:37;;;;;;;1.57;1.20;;;8.70;45.40;;;;;;10433871;28;20728;-72
2023/02/03 06:31:40;;;;;;;1.13;1.03;;;8.80;45.30;;;;;;10442875;28;20255;-70
2023/02/03 06:36:46;;;;;;;1.10;1.00;;;8.80;45.20;;;;;;10440508;28;20220;-70
2023/02/03 06:41:50;;;;;;;1.20;1.10;;;8.80;45.30;;;;;;10439291;28;20618;-70
2023/02/03 06:46:55;;;;;;;1.33;1.23;;;8.80;45.30;;;;;;10436318;28;20729;-72
2023/02/03 06:51:59;;;;;;;1.17;1.07;;;8.80;45.50;;;;;;10437328;28;20229;-70
2023/02/03 06:57:03;;;;;;;1.67;1.50;;;8.80;45.30;;;;;;10438505;28;20213;-71
2023/02/03 07:02:06;;;;;;;1.40;1.10;;;8.80;45.30;;;;;;10437027;28;20237;-70
2023/02/03 07:07:11;;;;;;;2.43;1.60;;;8.80;45.20;;;;;;10439879;28;20218;-70
2023/02/03 07:12:14;;;;;;;2.20;1.67;;;8.70;45.20;;;;;;10434404;28;20221;-76
2023/02/03 07:17:17;;;;;;;1.43;1.20;;;8.80;45.20;;;;;;10427981;28;20224;-76
2023/02/03 07:22:21;;;;;;;1.67;1.43;;;8.80;45.10;;;;;;10430747;28;20279;-75
2023/02/03 07:27:26;;;;;;;1.20;1.10;;;8.80;44.90;;;;;;10418569;28;20229;-72
2023/02/03 07:32:29;;;;;;;1.23;1.17;;;8.80;45.00;;;;;;10421110;28;20232;-71
2023/02/03 07:37:36;;;;;;;2.27;1.70;;;8.80;44.80;;;;;;10424771;28;20221;-72
2023/02/03 07:42:42;;;;;;;2.83;1.27;;;8.80;44.80;;;;;;10423126;28;20259;-71
2023/02/03 07:47:45;;;;;;;1.57;1.07;;;8.80;44.90;;;;;;10426917;28;20291;-71
2023/02/03 07:52:52;;;;;;;1.10;1.00;;;8.80;44.90;;;;;;10424396;28;20225;-70
2023/02/03 07:57:55;;;;;;;1.43;1.30;;;8.80;44.80;;;;;;10431286;28;20297;-70
2023/02/03 08:02:58;;;;;;;2.13;1.20;;;8.90;44.90;;;;;;10432787;28;20228;-70
2023/02/03 08:08:03;;;;;;;3.63;1.20;;;8.90;45.00;;;;;;10432319;28;20228;-72
2023/02/03 08:13:06;;;;;;;1.57;1.10;;;8.90;44.80;;;;;;10446453;28;20227;-71
2023/02/03 08:18:11;;;;;;;1.60;1.10;;;8.90;44.80;;;;;;10444607;28;20701;-71
2023/02/03 08:23:16;;;;;;;1.50;1.40;;;8.90;44.80;;;;;;10447032;28;20739;-70
2023/02/03 08:28:19;;;;;;;1.80;1.50;;;8.90;44.70;;;;;;10454859;28;20234;-77
2023/02/03 08:33:23;;;;;;;1.47;1.30;;;9.00;44.80;;;;;;10438688;28;20235;-72
2023/02/03 08:38:27;;;;;;;1.20;1.10;;;8.90;44.70;;;;;;10440920;28;20228;-72
2023/02/03 08:43:30;;;;;;;1.57;1.20;;;9.00;44.50;;;;;;10443668;28;20236;-72
2023/02/03 08:48:34;;;;;;;3.40;2.43;;;9.00;44.70;;;;;;10437619;28;20238;-76
2023/02/03 08:53:39;;;;;;;3.90;2.47;;;9.00;44.60;;;;;;10442656;28;20213;-77
2023/02/03 08:58:43;;;;;;;3.73;1.73;;;9.00;44.50;;;;;;10443792;28;20226;-76
2023/02/03 09:03:46;;;;;;;1.93;1.47;;;9.10;44.50;;;;;;10442420;28;20232;-76
2023/02/03 09:08:51;;;;;;;1.93;1.40;;;9.10;44.50;;;;;;10436309;28;20328;-76
2023/02/03 09:13:55;;;;;;;1.60;1.20;;;9.20;44.50;;;;;;10442597;28;20220;-76
2023/02/03 09:18:58;;;;;;;1.37;1.27;;;9.20;44.40;;;;;;10439985;28;20590;-76
2023/02/03 09:24:03;;;;;;;2.30;1.50;;;9.20;44.50;;;;;;10431855;28;20221;-73
2023/02/03 09:29:07;;;;;;;1.50;1.40;;;9.20;44.40;;;;;;10434604;28;20316;-75
2023/02/03 09:34:10;;;;;;;1.50;1.40;;;9.20;44.50;;;;;;10436539;28;20226;-76
2023/02/03 09:39:15;;;;;;;1.80;1.20;;;9.20;44.40;;;;;;10434438;28;20283;-76
2023/02/03 09:44:26;;;;;;;2.10;1.23;;;9.20;44.30;;;;;;10442574;28;20235;-76
2023/02/03 09:49:38;;;;;;;1.70;1.50;;;9.20;44.40;;;;;;10437314;28;20337;-76
2023/02/03 09:54:48;;;;;;;1.57;1.10;;;9.20;44.50;;;;;;10439440;28;20248;-76
2023/02/03 09:59:53;;;;;;;1.67;1.30;;;9.20;44.40;;;;;;10435952;28;20585;-76
2023/02/03 10:05:01;;;;;;;1.20;1.10;;;9.20;44.30;;;;;;10426760;28;20232;-77
2023/02/03 10:10:16;;;;;;;1.70;1.20;;;9.20;44.20;;;;;;10432987;28;20228;-76
2023/02/03 10:15:43;;;;;;;1.30;1.13;;;9.30;44.10;;;;;;10431280;28;20229;-77
2023/02/03 10:20:49;;;;;;;1.30;1.20;;;9.30;44.10;;;;;;10438367;28;20225;-70
2023/02/03 10:25:55;;;;;;;0.97;0.97;;;9.40;44.50;;;;;;10438879;28;20763;-70
2023/02/03 10:31:03;;;;;;;0.97;0.83;;;9.40;44.30;;;;;;10442278;28;20594;-72
2023/02/03 10:36:15;;;;;;;1.40;1.30;;;9.50;44.40;;;;;;10438110;28;20249;-70
2023/02/03 10:41:21;;;;;;;0.80;0.80;;;9.50;44.30;;;;;;10438474;28;20227;-70
2023/02/03 10:46:29;;;;;;;1.30;1.20;;;9.60;44.40;;;;;;10444042;28;20232;-70
2023/02/03 10:51:38;;;;;;;1.50;1.17;;;9.60;44.50;;;;;;10436230;28;20287;-70
2023/02/03 10:56:43;;;;;;;0.90;0.90;;;9.60;44.40;;;;;;10438111;28;20235;-70
2023/02/03 11:01:49;;;;;;;1.47;1.20;;;9.60;44.30;;;;;;10438682;28;20287;-70
2023/02/03 11:06:55;;;;;;;2.43;0.93;;;9.70;44.50;;;;;;10436288;28;20228;-70
2023/02/03 11:12:13;;;;;;;1.97;1.47;;;9.70;44.40;;;;;;10440694;28;20598;-70
2023/02/03 11:17:18;;;;;;;1.20;1.10;;;9.70;44.50;;;;;;10432999;28;20232;-70
2023/02/03 11:22:30;;;;;;;1.63;1.10;;;9.70;44.40;;;;;;10431739;28;20241;-70
2023/02/03 11:27:35;;;;;;;1.47;1.00;;;9.80;44.40;;;;;;10431436;28;20240;-78
2023/02/03 11:32:41;;;;;;;1.77;1.20;;;9.80;44.50;;;;;;10429952;28;20220;-77
2023/02/03 11:37:45;;;;;;;1.30;1.13;;;9.80;44.50;;;;;;10431677;28;20886;-76
2023/02/03 11:43:02;;;;;;;1.20;1.10;;;9.80;44.40;;;;;;10431568;28;20248;-75
2023/02/03 11:48:17;;;;;;;1.27;1.17;;;9.80;44.00;;;;;;10445986;28;20219;-71
2023/02/03 11:53:27;;;;;;;2.77;1.40;;;9.90;44.00;;;;;;10432884;28;20906;-71
2023/02/03 11:58:52;;;;;;;1.87;1.30;;;9.90;44.20;;;;;;10444542;28;20225;-71
2023/02/03 12:04:22;;;;;;;1.47;1.33;;;9.90;43.90;;;;;;10439989;28;20233;-70
2023/02/03 12:09:34;;;;;;;0.90;0.90;;;9.90;44.00;;;;;;10435774;28;20252;-71
2023/02/03 12:15:04;;;;;;;1.30;1.20;;;10.00;42.90;;;;;;10433097;28;20226;-71
2023/02/03 12:20:23;;;;;;;1.00;1.00;;;10.00;42.80;;;;;;10430434;28;20229;-71
2023/02/03 12:25:46;;;;;;;1.10;1.10;;;10.00;42.50;;;;;;10426337;28;20600;-71
2023/02/03 12:30:55;;;;;;;1.37;1.27;;;10.00;42.40;;;;;;10420999;28;20275;-71
2023/02/03 12:36:05;;;;;;;2.70;1.37;;;10.10;42.60;;;;;;10440403;28;20230;-71
2023/02/03 12:41:13;;;;;;;1.03;1.03;;;10.10;42.40;;;;;;10431912;28;20266;-71
2023/02/03 12:46:22;;;;;;;1.00;1.00;;;10.10;42.30;;;;;;10429908;28;20233;-71
2023/02/03 12:51:33;;;;;;;1.57;1.10;;;10.10;42.10;;;;;;10444011;28;20240;-71
2023/02/03 12:56:42;;;;;;;1.43;1.10;;;10.20;42.40;;;;;;10429354;28;20221;-70
2023/02/03 13:01:52;;;;;;;1.03;1.00;;;10.20;42.30;;;;;;10439070;28;20249;-75
2023/02/03 13:07:04;;;;;;;1.27;1.00;;;10.20;41.90;;;;;;10436334;28;20327;-76
2023/02/03 13:12:13;;;;;;;1.00;1.00;;;10.20;41.60;;;;;;10436817;28;20681;-70
2023/02/03 13:17:23;;;;;;;1.50;1.00;;;10.20;41.90;;;;;;10446317;28;20223;-70
2023/02/03 13:22:27;;;;;;;1.00;0.90;;;10.20;41.80;;;;;;10443162;28;20233;-70
2023/02/03 13:27:45;;;;;;;2.10;0.90;;;10.20;42.10;;;;;;10442381;28;20232;-71
2023/02/03 13:33:27;;;;;;;1.00;1.00;;;10.30;41.70;;;;;;10435149;28;20916;-76
2023/02/03 13:39:08;;;;;;;0.90;0.90;;;10.30;41.10;;;;;;10439307;28;20229;-75
2023/02/03 13:44:15;;;;;;;1.03;1.00;;;10.30;41.00;;;;;;10440085;28;20216;-74
2023/02/03 13:49:26;;;;;;;0.90;0.90;;;10.30;41.60;;;;;;10440039;28;20233;-71
2023/02/03 13:54:33;;;;;;;1.30;1.00;;;10.30;41.20;;;;;;10442199;28;20241;-75
2023/02/03 13:59:44;;;;;;;1.50;1.40;;;10.30;41.50;;;;;;10436435;28;20264;-69
2023/02/03 14:04:56;;;;;;;1.10;1.10;;;10.30;41.10;;;;;;10439264;28;20240;-69
2023/02/03 14:10:22;;;;;;;1.70;1.60;;;10.30;41.10;;;;;;10433741;28;21216;-71
2023/02/03 14:15:33;;;;;;;1.10;1.10;;;10.30;41.40;;;;;;10438737;28;20312;-71
2023/02/03 14:20:52;;;;;;;1.20;1.10;;;10.30;41.20;;;;;;10424930;28;20225;-72
2023/02/03 14:25:58;;;;;;;1.30;1.20;;;10.30;41.40;;;;;;10424875;28;20236;-71
2023/02/03 14:31:15;;;;;;;1.50;1.40;;;10.30;41.80;;;;;;10427385;28;20252;-71
2023/02/03 14:36:36;;;;;;;2.00;1.37;;;10.30;41.20;;;;;;10424169;28;20819;-71
2023/02/03 14:41:54;;;;;;;1.10;1.10;;;10.30;41.10;;;;;;10432037;28;20236;-71
2023/02/03 14:47:13;;;;;;;1.27;1.13;;;10.30;40.20;;;;;;10424324;28;20217;-71
2023/02/03 14:52:45;;;;;;;0.83;0.83;;;10.30;40.80;;;;;;10425825;28;20217;-71
2023/02/03 14:57:52;;;;;;;1.33;1.23;;;10.30;40.20;;;;;;10428371;28;20267;-71
2023/02/03 15:03:24;;;;;;;2.37;2.17;;;10.40;40.90;;;;;;10427196;28;20798;-71
2023/02/03 15:08:47;;;;;;;1.30;1.20;;;10.40;40.30;;;;;;10397362;28;20226;-69
2023/02/03 15:13:50;;;;;;;2.80;1.97;;;10.40;40.30;;;;;;10436241;28;20236;-69
2023/02/03 15:19:06;;;;;;;1.60;1.50;;;10.40;40.80;;;;;;10432578;28;20232;-69
2023/02/03 15:24:14;;;;;;;1.00;1.00;;;10.40;40.30;;;;;;10435841;28;20236;-72
2023/02/03 15:29:23;;;;;;;1.20;1.10;;;10.40;40.30;;;;;;10429876;28;20225;-72
2023/02/03 15:34:30;;;;;;;0.70;0.70;;;10.40;40.30;;;;;;10440141;28;20999;-68
2023/02/03 15:39:48;;;;;;;1.00;1.00;;;10.50;40.40;;;;;;10434020;28;20235;-69
2023/02/03 15:44:57;;;;;;;1.43;1.13;;;10.40;40.30;;;;;;10433920;28;20270;-69
2023/02/03 15:50:06;;;;;;;1.93;1.60;;;10.40;40.60;;;;;;10437410;28;20225;-78
2023/02/03 15:55:19;;;;;;;1.57;1.10;;;10.40;40.50;;;;;;10435144;28;20225;-78
2023/02/03 16:00:37;;;;;;;0.80;0.80;;;10.40;40.50;;;;;;10432017;28;20677;-72
2023/02/03 16:05:41;;;;;;;1.20;1.10;;;10.30;40.60;;;;;;10434146;28;20229;-70
2023/02/03 16:10:45;;;;;;;1.23;1.13;;;10.30;41.30;;;;;;10433213;28;20247;-78
2023/02/03 16:16:01;;;;;;;0.80;0.80;;;10.30;41.40;;;;;;10434744;28;20304;-77
2023/02/03 16:21:05;;;;;;;1.07;1.00;;;10.20;41.30;;;;;;10441889;28;20217;-70
2023/02/03 16:26:19;;;;;;;1.17;0.90;;;10.20;41.80;;;;;;10440443;28;20638;-72
2023/02/03 16:52:59;;;;;;;1.33;1.23;;;9.90;43.70;;;;;;10436398;28;20217;-72
2023/02/03 16:58:03;;;;;;;1.30;1.20;;;9.80;43.80;;;;;;10437803;28;20251;-72
2023/02/03 17:03:07;;;;;;;2.23;1.37;;;9.80;44.00;;;;;;10436276;28;20228;-72
2023/02/03 17:08:11;;;;;;;1.27;1.03;;;9.70;44.00;;;;;;10425851;28;20253;-71
2023/02/03 17:13:17;;;;;;;1.20;0.90;;;9.70;44.20;;;;;;10424587;28;20244;-71
2023/02/03 17:18:20;;;;;;;1.03;0.93;;;9.70;44.20;;;;;;10445370;28;20235;-70
2023/02/03 17:23:23;;;;;;;0.83;0.83;;;9.70;44.40;;;;;;10433869;28;20225;-71
2023/02/03 17:28:29;;;;;;;0.80;0.80;;;9.70;44.50;;;;;;10440179;28;20271;-70
2023/02/03 17:33:33;;;;;;;0.80;0.80;;;9.70;44.60;;;;;;10441607;28;20225;-78
2023/02/03 17:38:38;;;;;;;1.30;0.80;;;9.70;44.70;;;;;;10444310;28;20611;-78
2023/02/03 17:44:00;;;;;;;0.80;0.80;;;9.70;44.70;;;;;;10440745;28;20227;-71
2023/02/03 17:49:21;;;;;;;0.90;0.90;;;9.70;44.90;;;;;;10442821;28;20312;-78
2023/02/03 17:54:42;;;;;;;1.73;1.30;;;9.60;44.90;;;;;;10445290;28;20224;-69
2023/02/03 17:59:47;;;;;;;1.10;1.10;;;9.60;45.10;;;;;;10445132;28;20279;-69
2023/02/03 18:04:50;;;;;;;1.10;1.00;;;9.60;45.20;;;;;;10443079;28;20229;-69
2023/02/03 18:09:53;;;;;;;1.20;1.10;;;9.60;45.20;;;;;;10442025;28;20640;-71
2023/02/03 18:14:57;;;;;;;1.87;1.40;;;9.60;45.20;;;;;;10432971;28;20221;-72
2023/02/03 18:20:02;;;;;;;1.13;0.80;;;9.60;45.40;;;;;;10443227;28;20228;-71
2023/02/03 18:25:08;;;;;;;1.13;0.90;;;9.60;45.50;;;;;;10431535;28;20262;-71
2023/02/03 18:30:16;;;;;;;0.80;0.80;;;9.60;45.60;;;;;;10433263;28;20235;-71
2023/02/03 18:35:19;;;;;;;0.80;0.80;;;9.60;46.00;;;;;;10432163;28;20613;-71
2023/02/03 18:40:22;;;;;;;0.60;0.60;;;9.60;45.70;;;;;;10424622;28;20229;-71
2023/02/03 18:45:27;;;;;;;0.90;0.90;;;9.60;45.90;;;;;;10422414;28;20245;-71
2023/02/03 18:50:30;;;;;;;0.97;0.97;;;9.60;46.10;;;;;;10428665;28;20232;-71
2023/02/03 18:55:34;;;;;;;0.90;0.90;;;9.60;46.00;;;;;;10428633;28;20232;-73
2023/02/03 19:00:39;;;;;;;1.33;1.10;;;9.60;46.30;;;;;;10417332;28;20232;-74
2023/02/03 19:05:42;;;;;;;1.70;0.90;;;9.60;46.50;;;;;;10432148;28;20891;-76
2023/02/03 19:10:47;;;;;;;1.77;0.90;;;9.60;46.00;;;;;;10434163;28;20240;-76
2023/02/03 19:15:52;;;;;;;0.83;0.83;;;9.60;46.30;;;;;;10430863;28;20713;-77
2023/02/03 19:20:55;;;;;;;1.10;1.00;;;9.60;46.10;;;;;;10430028;28;20704;-76
2023/02/03 19:25:58;;;;;;;0.90;0.90;;;9.70;46.10;;;;;;10435589;28;20232;-77
2023/02/03 19:31:07;;;;;;;1.23;0.80;;;9.60;46.20;;;;;;10421612;28;20885;-77
2023/02/03 19:36:11;;;;;;;0.83;0.83;;;9.60;46.50;;;;;;10408141;28;20251;-74
2023/02/03 19:41:15;;;;;;;0.90;0.70;;;9.60;46.30;;;;;;10411822;28;20229;-76
2023/02/03 19:46:20;;;;;;;0.80;0.80;;;9.70;46.30;;;;;;10412235;28;20787;-76
2023/02/03 19:51:23;;;;;;;1.30;1.20;;;9.70;46.40;;;;;;10403466;28;20239;-75
2023/02/03 19:56:27;;;;;;;1.00;0.90;;;9.70;46.30;;;;;;10410003;28;20236;-78
2023/02/03 20:01:32;;;;;;;2.30;0.90;;;9.70;46.20;;;;;;10413297;28;20610;-71
2023/02/03 20:06:35;;;;;;;0.83;0.83;;;9.70;46.60;;;;;;10400638;28;20279;-72
2023/02/03 20:11:38;;;;;;;0.70;0.70;;;9.80;46.30;;;;;;10395634;28;20237;-71
2023/02/03 20:16:43;;;;;;;1.23;0.80;;;9.80;46.40;;;;;;10412259;28;20942;-69
2023/02/03 20:21:47;;;;;;;0.77;0.77;;;9.80;46.40;;;;;;10408541;28;20243;-70
2023/02/03 20:26:50;;;;;;;0.80;0.80;;;9.80;46.30;;;;;;10408264;28;20723;-70
2023/02/03 20:31:56;;;;;;;2.70;1.30;;;9.80;46.40;;;;;;10396569;28;20225;-70
2023/02/03 20:36:59;;;;;;;0.80;0.80;;;9.80;46.60;;;;;;10404440;28;20237;-70
2023/02/03 20:42:06;;;;;;;0.93;0.93;;;9.80;46.60;;;;;;10407670;28;20213;-70
2023/02/03 20:47:13;;;;;;;1.00;1.00;;;9.90;46.60;;;;;;10414715;28;20217;-71
2023/02/03 20:52:19;;;;;;;0.77;0.77;;;9.80;46.80;;;;;;10422436;28;20731;-72
2023/02/03 20:57:24;;;;;;;0.80;0.80;;;9.80;47.00;;;;;;10422919;28;20236;-77
2023/02/03 21:04:56;;;;;;;0.80;0.80;;;9.70;46.90;;;;;;10420596;28;20232;-70
2023/02/03 21:07:54;;;;;;;0.90;0.90;;;9.70;47.00;;;;;;10416741;28;20236;-70
2023/02/03 21:12:57;;;;;;;0.90;0.90;;;9.80;46.60;;;;;;10429992;28;20252;-69
2023/02/03 21:18:02;;;;;;;0.87;0.87;;;9.80;46.70;;;;;;10437626;28;20233;-69
2023/02/03 21:23:11;;;;;;;0.93;0.80;;;9.80;47.30;;;;;;10434238;28;20216;-71
2023/02/03 21:28:24;;;;;;;3.07;1.07;;;9.80;47.70;;;;;;10432283;28;20264;-70
2023/02/03 21:33:39;;;;;;;0.80;0.80;;;9.70;47.60;;;;;;10440954;28;20233;-76
2023/02/03 21:38:42;;;;;;;0.90;0.90;;;9.80;47.70;;;;;;10435335;28;20458;-76
2023/02/03 21:43:49;;;;;;;1.00;1.00;;;9.70;47.00;;;;;;10434748;28;20747;-76
2023/02/03 21:48:54;;;;;;;0.90;0.90;;;9.70;47.30;;;;;;10435516;28;20256;-76
2023/02/03 21:53:59;;;;;;;1.20;1.10;;;9.70;47.50;;;;;;10439340;28;20999;-68
2023/02/03 21:59:03;;;;;;;1.00;1.00;;;9.80;47.40;;;;;;10434183;28;20228;-68
2023/02/03 22:04:08;;;;;;;1.03;1.03;;;9.80;47.00;;;;;;10427837;28;20232;-68
2023/02/03 22:09:13;;;;;;;0.80;0.80;;;9.70;47.60;;;;;;10433416;28;20635;-68
2023/02/03 22:14:19;;;;;;;0.70;0.70;;;9.70;47.50;;;;;;10432884;28;20228;-68
2023/02/03 22:19:24;;;;;;;0.80;0.80;;;9.70;47.70;;;;;;10431797;28;20790;-71
2023/02/03 22:24:27;;;;;;;0.90;0.90;;;9.70;47.70;;;;;;10427230;28;20313;-76
2023/02/03 22:29:30;;;;;;;1.03;1.00;;;9.70;48.00;;;;;;10437327;28;20236;-76
2023/02/03 22:34:35;;;;;;;0.80;0.80;;;9.70;48.00;;;;;;10436467;28;20221;-71
2023/02/03 22:39:38;;;;;;;0.90;0.90;;;9.70;48.20;;;;;;10430456;28;20310;-68
2023/02/03 22:44:41;;;;;;;0.90;0.90;;;9.70;48.40;;;;;;10429058;28;20283;-68
2023/02/03 22:49:46;;;;;;;0.90;0.90;;;9.70;48.00;;;;;;10423795;28;20240;-70
2023/02/03 22:54:49;;;;;;;1.10;0.90;;;9.80;48.40;;;;;;10426305;28;20221;-71
2023/02/03 22:59:52;;;;;;;1.10;1.10;;;9.80;48.00;;;;;;10428396;28;20640;-71
2023/02/03 23:04:57;;;;;;;0.70;0.70;;;9.80;48.10;;;;;;10420617;28;20225;-70
2023/02/03 23:10:00;;;;;;;1.07;1.00;;;9.80;48.20;;;;;;10433382;28;20592;-71
2023/02/03 23:15:04;;;;;;;1.53;0.90;;;9.90;47.80;;;;;;10428555;28;20221;-72
2023/02/03 23:20:11;;;;;;;2.33;1.30;;;9.90;47.90;;;;;;10422440;28;20228;-70
2023/02/03 23:25:14;;;;;;;5.70;1.77;;;9.90;48.00;;;;;;10436857;28;20616;-70
2023/02/03 23:30:17;;;;;;;4.30;1.90;;;9.80;47.20;;;;;;10432830;28;20226;-70
2023/02/03 23:40:43;;;;;;;4.53;1.80;;;9.90;46.70;;;;;;10426688;28;20736;-70
2023/02/03 23:45:46;;;;;;;3.50;2.07;;;9.90;46.60;;;;;;10426452;28;20236;-70
2023/02/03 23:50:51;;;;;;;7.83;2.00;;;9.80;46.30;;;;;;10434301;28;20229;-70
2023/02/03 23:55:54;;;;;;;6.13;2.20;;;9.80;46.00;;;;;;10430825;28;20228;-70
